Provo, Kentucky
Current Conditions -  °F | °C
As of 11:53 PM on Sunday 21 Dec 2014 (Local Time) from KBWG Reporting Station
Clear Clear  
Wind Chill: 36°   Ceiling: Unl
Heat Index: 36°   Visibility: 10mi
Dew Point: 28°   Wind: 3mph
Humidity: 73%   Direction: 40°NE
Pressure: 30"   Gusts: NA
Location:  37.23°N, 86.83°W
Report Text: KBWG 220553Z AUTO 04003KT 10SM CLR 02/M02 A3000 RMK AO2 SLP162 T00221022 10061 20011 401061056 58019
Loading
Personal Weather Stations






























Interactive Weather Map New forecast layout! Learn more

10-Day Weather Forecast

Advertisements
Track Severe Weather on mobile